createdAt,value
2018-11-20T00:01:44.872Z,78.18
2018-11-20T00:04:34.240Z,78.56
2018-11-20T00:07:23.495Z,78.08
2018-11-20T00:10:12.767Z,78.36
2018-11-20T00:12:59.402Z,78.24
2018-11-20T00:15:48.761Z,78.48
2018-11-20T00:18:56.869Z,77.76
2018-11-20T00:21:36.034Z,77.66
2018-11-20T00:24:25.523Z,77.78
2018-11-20T00:27:14.798Z,77.47
2018-11-20T00:30:04.077Z,77.77
2018-11-20T00:32:53.340Z,77.59
2018-11-20T00:35:42.582Z,77.83
2018-11-20T00:38:31.875Z,77.71
2018-11-20T00:41:21.128Z,77.69
2018-11-20T00:44:10.427Z,78.13
2018-11-20T00:46:59.768Z,78.01
2018-11-20T00:49:49.081Z,78.12
2018-11-20T00:52:38.323Z,78.11
2018-11-20T00:56:05.472Z,78.14
2018-11-20T00:58:54.802Z,78.18
2018-11-20T01:01:44.088Z,78.30
2018-11-20T01:04:33.338Z,78.74
2018-11-20T01:07:22.709Z,78.73
2018-11-20T01:10:11.939Z,79.11
2018-11-20T01:13:01.242Z,79.88
2018-11-20T01:15:50.476Z,80.26
2018-11-20T01:18:39.756Z,81.53
2018-11-20T01:21:28.999Z,82.07
2018-11-20T01:24:09.536Z,82.71
2018-11-20T01:26:58.879Z,83.38
2018-11-20T01:29:48.159Z,83.80
2018-11-20T01:32:37.404Z,83.95
2018-11-20T01:35:26.691Z,84.43
2018-11-20T01:46:53.427Z,85.47
2018-11-20T01:49:35.292Z,85.63
2018-11-20T01:52:24.670Z,85.62
2018-11-20T01:55:13.973Z,85.94
2018-11-20T01:58:03.212Z,86.14
2018-11-20T02:03:34.585Z,86.32
2018-11-20T02:06:23.842Z,86.23
2018-11-20T02:09:13.183Z,86.33
2018-11-20T02:17:28.980Z,86.14
2018-11-20T02:20:18.236Z,86.09
2018-11-20T02:25:49.451Z,86.04
2018-11-20T02:28:31.592Z,86.49
2018-11-20T02:31:20.833Z,86.52
2018-11-20T02:34:29.374Z,86.03
2018-11-20T02:37:18.620Z,85.88
2018-11-20T02:40:08.328Z,86.36
2018-11-20T02:42:44.175Z,86.17
2018-11-20T02:45:33.461Z,85.85
2018-11-20T02:48:22.724Z,86.70
2018-11-20T02:53:53.468Z,86.68
2018-11-20T02:56:42.721Z,86.15
2018-11-20T02:59:32.081Z,86.21
2018-11-20T03:02:21.321Z,85.99
2018-11-20T03:05:10.603Z,85.55
2018-11-20T03:07:59.987Z,85.48
2018-11-20T03:10:49.270Z,85.61
2018-11-20T03:13:38.643Z,84.70
2018-11-20T03:16:27.919Z,83.97
2018-11-20T03:19:17.165Z,84.12
2018-11-20T03:22:06.440Z,83.41
2018-11-20T03:24:55.681Z,82.76
2018-11-20T03:27:44.955Z,82.33
2018-11-20T03:31:11.999Z,82.38
2018-11-20T03:34:02.987Z,83.07
2018-11-20T03:36:52.236Z,81.13
2018-11-20T03:39:41.512Z,81.10
2018-11-20T03:42:30.857Z,80.60
2018-11-20T03:45:20.132Z,80.11
2018-11-20T03:48:09.503Z,80.11
2018-11-20T03:50:58.868Z,80.44
2018-11-20T03:53:48.213Z,80.17
2018-11-20T03:56:37.527Z,79.92
2018-11-20T03:59:26.793Z,79.34
2018-11-20T04:02:16.199Z,79.96
2018-11-20T04:05:05.585Z,79.87
2018-11-20T04:07:55.435Z,79.72
2018-11-20T04:10:44.674Z,79.78
2018-11-20T04:13:33.958Z,79.95
2018-11-20T04:16:23.210Z,80.53
2018-11-20T04:19:12.578Z,80.67
2018-11-20T04:22:01.913Z,80.54
2018-11-20T04:24:51.219Z,80.55
2018-11-20T04:27:40.461Z,80.69
2018-11-20T04:31:07.531Z,80.51
2018-11-20T04:33:58.147Z,80.78
2018-11-20T04:36:50.522Z,80.33
2018-11-20T04:39:39.806Z,80.24
2018-11-20T04:42:29.219Z,80.50
2018-11-20T04:45:18.583Z,81.06
2018-11-20T04:48:07.988Z,81.35
2018-11-20T04:50:57.230Z,81.11
2018-11-20T04:53:46.608Z,80.57
2018-11-20T04:56:35.951Z,80.73
2018-11-20T04:59:17.625Z,80.71
2018-11-20T05:02:06.870Z,80.58
2018-11-20T05:04:56.155Z,80.32
2018-11-20T05:07:45.412Z,79.90
2018-11-20T05:10:34.691Z,80.18
2018-11-20T05:13:24.223Z,79.67
2018-11-20T05:16:13.535Z,79.92
2018-11-20T05:19:02.775Z,79.93
2018-11-20T05:21:52.043Z,79.62
2018-11-20T05:24:41.282Z,79.74
2018-11-20T05:27:30.551Z,79.68
2018-11-20T05:30:19.893Z,79.63
2018-11-20T05:33:09.161Z,79.86
2018-11-20T05:35:58.409Z,79.86
2018-11-20T05:38:47.685Z,80.04
2018-11-20T05:41:36.935Z,80.19
2018-11-20T05:44:26.243Z,80.11
2018-11-20T05:47:15.505Z,80.11
2018-11-20T05:50:04.795Z,80.66
2018-11-20T05:52:54.141Z,80.82
2018-11-20T05:55:43.535Z,80.90
2018-11-20T05:58:32.883Z,81.19
2018-11-20T06:01:22.374Z,80.73
2018-11-20T06:04:11.648Z,80.68
2018-11-20T06:07:00.926Z,80.73
2018-11-20T06:09:50.268Z,80.32
2018-11-20T06:15:21.130Z,80.76
2018-11-20T06:18:10.438Z,80.26
2018-11-20T06:20:59.777Z,80.45
2018-11-20T06:23:49.064Z,80.36
2018-11-20T06:26:38.316Z,80.20
2018-11-20T06:29:27.609Z,80.21
2018-11-20T06:32:16.866Z,80.22
2018-11-20T06:37:48.322Z,80.17
2018-11-20T06:40:37.572Z,80.23
2018-11-20T06:43:26.856Z,80.72
2018-11-20T06:46:16.314Z,80.34
2018-11-20T06:49:05.595Z,80.19
2018-11-20T06:51:54.850Z,80.24
2018-11-20T06:57:29.426Z,80.15
2018-11-20T07:00:18.555Z,80.41
2018-11-20T07:03:07.799Z,80.12
2018-11-20T07:05:57.165Z,80.09
2018-11-20T07:08:46.518Z,80.12
2018-11-20T07:11:35.719Z,79.97
2018-11-20T07:14:45.483Z,80.11
2018-11-20T07:17:38.038Z,79.81
2018-11-20T07:20:27.554Z,79.68
2018-11-20T07:23:16.827Z,79.48
2018-11-20T07:26:06.084Z,79.62
2018-11-20T07:28:55.351Z,79.98
2018-11-20T07:34:59.709Z,79.97
2018-11-20T07:37:48.778Z,80.08
2018-11-20T07:40:38.141Z,79.74
2018-11-20T07:43:27.440Z,79.56
2018-11-20T07:46:06.916Z,79.81
2018-11-20T07:48:56.158Z,79.77
2018-11-20T07:54:27.386Z,79.94
2018-11-20T07:57:16.663Z,79.92
2018-11-20T08:00:05.960Z,80.04
2018-11-20T08:02:55.228Z,80.29
2018-11-20T08:06:03.496Z,80.38
2018-11-20T08:08:52.874Z,80.39
2018-11-20T08:11:42.063Z,80.40
2018-11-20T08:14:31.439Z,80.18
2018-11-20T08:17:10.887Z,80.22
2018-11-20T08:20:00.175Z,79.89
2018-11-20T08:22:49.416Z,79.60
2018-11-20T08:28:20.730Z,79.61
2018-11-20T08:31:10.091Z,79.74
2018-11-20T08:33:59.273Z,79.61
2018-11-20T08:36:42.442Z,79.24
2018-11-20T08:39:31.150Z,79.73
2018-11-20T08:42:20.497Z,79.98
2018-11-20T08:48:24.187Z,79.41
2018-11-20T08:51:13.359Z,79.64
2018-11-20T08:54:02.649Z,79.79
2018-11-20T08:56:51.987Z,79.72
2018-11-20T08:59:41.273Z,79.27
2018-11-20T09:02:30.553Z,78.98
2018-11-20T09:05:20.126Z,79.14
2018-11-20T09:08:09.451Z,78.97
2018-11-20T09:10:58.733Z,78.74
2018-11-20T09:13:48.090Z,78.48
2018-11-20T09:16:37.389Z,78.35
2018-11-20T09:19:26.766Z,78.78
2018-11-20T09:22:16.595Z,78.41
2018-11-20T09:25:05.830Z,78.75
2018-11-20T09:27:55.148Z,78.35
2018-11-20T09:30:44.453Z,78.27
2018-11-20T09:33:33.749Z,78.30
2018-11-20T09:36:23.186Z,78.31
2018-11-20T09:39:12.476Z,77.96
2018-11-20T09:41:50.594Z,77.85
2018-11-20T09:45:14.706Z,78.00
2018-11-20T09:47:55.001Z,78.22
2018-11-20T09:50:44.278Z,78.17
2018-11-20T09:53:33.530Z,78.36
2018-11-20T09:56:23.174Z,78.24
2018-11-20T09:59:05.214Z,78.43
2018-11-20T10:01:54.492Z,78.09
2018-11-20T10:04:43.814Z,78.49
2018-11-20T10:07:33.217Z,77.90
2018-11-20T10:10:22.559Z,78.21
2018-11-20T10:13:11.878Z,78.39
2018-11-20T10:16:01.171Z,78.22
2018-11-20T10:18:50.437Z,78.00
2018-11-20T10:21:39.799Z,78.18
2018-11-20T10:24:28.973Z,78.70
2018-11-20T10:27:09.712Z,78.51
2018-11-20T10:29:59.133Z,78.46
2018-11-20T10:32:48.368Z,78.62
2018-11-20T10:35:37.759Z,78.65
2018-11-20T10:38:26.907Z,79.07
2018-11-20T10:43:58.243Z,78.74
2018-11-20T10:46:47.608Z,78.61
2018-11-20T10:49:36.804Z,78.70
2018-11-20T10:52:26.328Z,78.81
2018-11-20T10:55:15.500Z,78.62
2018-11-20T10:58:04.743Z,79.00
2018-11-20T11:00:54.036Z,78.57
2018-11-20T11:03:43.362Z,78.58
2018-11-20T11:06:33.454Z,79.00
2018-11-20T11:09:22.568Z,79.01
2018-11-20T11:12:12.039Z,78.62
2018-11-20T11:15:01.399Z,79.29
2018-11-20T11:17:50.688Z,78.86
2018-11-20T11:20:33.723Z,78.81
2018-11-20T11:23:12.325Z,78.81
2018-11-20T11:26:01.651Z,78.81
2018-11-20T11:28:51.436Z,78.49
2018-11-20T11:31:40.270Z,78.83
2018-11-20T11:34:29.555Z,78.67
2018-11-20T11:37:18.804Z,78.91
2018-11-20T11:40:08.124Z,78.63
2018-11-20T11:42:57.452Z,79.19
2018-11-20T11:45:46.849Z,79.27
2018-11-20T11:48:36.101Z,79.29
2018-11-20T11:51:25.622Z,79.59
2018-11-20T11:57:29.147Z,79.52
2018-11-20T12:00:18.494Z,79.43
2018-11-20T12:05:49.416Z,79.43
2018-11-20T12:08:38.656Z,79.38
2018-11-20T12:11:28.096Z,79.46
2018-11-20T12:14:17.336Z,79.49
2018-11-20T12:17:06.611Z,79.06
2018-11-20T12:19:55.904Z,79.12
2018-11-20T12:22:45.296Z,79.26
2018-11-20T12:25:34.534Z,79.36
2018-11-20T12:31:05.267Z,79.07
2018-11-20T12:33:54.860Z,79.59
2018-11-20T12:36:44.141Z,79.16
2018-11-20T12:42:48.308Z,79.04
2018-11-20T12:45:37.705Z,79.12
2018-11-20T12:48:27.083Z,78.85
2018-11-20T12:51:16.338Z,79.30
2018-11-20T12:54:06.446Z,79.07
2018-11-20T12:56:55.690Z,79.17
2018-11-20T12:59:45.114Z,79.11
2018-11-20T13:02:34.366Z,79.09
2018-11-20T13:05:24.335Z,79.09
2018-11-20T13:08:13.656Z,79.34
2018-11-20T13:11:02.930Z,79.48
2018-11-20T13:14:03.955Z,79.55
2018-11-20T13:16:53.258Z,79.57
2018-11-20T13:19:42.604Z,79.52
2018-11-20T13:22:33.557Z,79.37
2018-11-20T13:25:21.124Z,79.62
2018-11-20T13:28:10.421Z,79.70
2018-11-20T13:30:59.659Z,79.96
2018-11-20T13:33:49.715Z,79.47
2018-11-20T13:36:38.286Z,79.75
2018-11-20T13:39:47.858Z,79.80
2018-11-20T13:42:39.732Z,79.88
2018-11-20T13:45:29.028Z,80.49
2018-11-20T13:48:18.268Z,81.34
2018-11-20T13:51:07.555Z,82.29
2018-11-20T13:53:56.799Z,82.88
2018-11-20T13:56:46.076Z,82.97
2018-11-20T13:59:35.320Z,83.37
2018-11-20T14:02:24.759Z,82.97
2018-11-20T14:05:13.996Z,82.32
2018-11-20T14:08:04.620Z,82.26
2018-11-20T14:10:53.930Z,82.44
2018-11-20T14:13:43.305Z,82.59
2018-11-20T14:16:32.539Z,82.42
2018-11-20T14:19:21.829Z,82.68
2018-11-20T14:22:11.125Z,82.40
2018-11-20T14:25:01.565Z,82.36
2018-11-20T14:27:50.800Z,83.02
2018-11-20T14:30:40.180Z,83.47
2018-11-20T14:33:29.869Z,84.24
2018-11-20T14:36:19.319Z,85.08
2018-11-20T14:39:08.555Z,85.85
2018-11-20T14:41:57.933Z,86.22
2018-11-20T14:44:47.224Z,86.65
2018-11-20T14:47:36.508Z,86.97
2018-11-20T14:50:26.929Z,87.70
2018-11-20T14:53:16.325Z,87.27
2018-11-20T14:56:05.608Z,86.88
2018-11-20T14:58:54.867Z,87.13
2018-11-20T15:01:44.116Z,86.80
2018-11-20T15:04:33.429Z,86.49
2018-11-20T15:07:22.629Z,86.39
2018-11-20T15:10:11.966Z,86.02
2018-11-20T15:13:01.214Z,84.95
2018-11-20T15:15:50.511Z,85.01
2018-11-20T15:18:44.048Z,84.70
2018-11-20T15:21:29.040Z,84.47
2018-11-20T15:24:18.369Z,84.63
2018-11-20T15:27:07.788Z,85.10
2018-11-20T15:29:57.031Z,86.01
2018-11-20T15:32:46.315Z,86.97
2018-11-20T15:35:35.554Z,86.79
2018-11-20T15:41:38.936Z,87.91
2018-11-20T15:44:28.226Z,87.67
2018-11-20T15:47:17.469Z,88.19
2018-11-20T15:50:06.775Z,88.80
2018-11-20T15:52:47.763Z,88.75
2018-11-20T15:55:37.048Z,88.90
2018-11-20T15:58:26.293Z,89.41
2018-11-20T16:03:56.973Z,90.01
2018-11-20T16:06:46.240Z,90.03
2018-11-20T16:12:17.656Z,90.23
2018-11-20T16:15:06.909Z,90.42
2018-11-20T16:17:57.171Z,90.43
2018-11-20T16:20:46.408Z,90.43
2018-11-20T16:23:35.784Z,90.79
2018-11-20T16:26:25.096Z,90.70
2018-11-20T16:29:14.464Z,90.60
2018-11-20T16:32:03.713Z,90.58
2018-11-20T16:34:53.018Z,90.55
2018-11-20T16:37:42.257Z,91.00
2018-11-20T16:40:31.542Z,90.52
2018-11-20T16:43:20.788Z,90.75
2018-11-20T16:46:21.264Z,90.90
2018-11-20T16:49:10.507Z,90.81
2018-11-20T16:51:59.792Z,90.53
2018-11-20T16:54:49.065Z,90.44
2018-11-20T16:57:38.377Z,90.71
2018-11-20T17:00:28.688Z,90.76
2018-11-20T17:03:18.032Z,90.99
2018-11-20T17:06:07.279Z,91.18
2018-11-20T17:12:32.601Z,90.75
2018-11-20T17:15:21.888Z,90.62
2018-11-20T17:18:03.116Z,90.47
2018-11-20T17:20:52.442Z,90.44
2018-11-20T17:23:41.688Z,90.27
2018-11-20T17:26:31.009Z,90.45
2018-11-20T17:29:20.255Z,90.14
2018-11-20T17:32:09.648Z,89.93
2018-11-20T17:34:58.904Z,89.88
2018-11-20T17:37:48.218Z,89.96
2018-11-20T17:40:37.797Z,89.85
2018-11-20T17:43:27.417Z,89.90
2018-11-20T17:46:16.763Z,89.41
2018-11-20T17:49:06.207Z,89.35
2018-11-20T17:52:02.866Z,89.39
2018-11-20T17:55:11.018Z,89.45
2018-11-20T17:57:57.235Z,89.17
2018-11-20T18:00:44.837Z,88.95
2018-11-20T18:03:34.086Z,88.98
2018-11-20T18:06:23.380Z,89.07
2018-11-20T18:09:12.756Z,88.90
2018-11-20T18:12:02.271Z,88.70
2018-11-20T18:14:51.638Z,89.09
2018-11-20T18:17:41.355Z,89.30
2018-11-20T18:23:44.793Z,89.42
2018-11-20T18:26:34.045Z,89.38
2018-11-20T18:29:23.343Z,89.36
2018-11-20T18:32:12.577Z,89.64
2018-11-20T18:35:01.857Z,90.27
2018-11-20T18:37:57.068Z,90.03
2018-11-20T18:40:58.584Z,90.20
2018-11-20T18:43:58.318Z,90.78
2018-11-20T18:46:46.042Z,90.67
2018-11-20T18:49:33.194Z,90.84
2018-11-20T18:52:26.756Z,90.99
2018-11-20T18:55:19.059Z,91.13
2018-11-20T18:58:20.275Z,91.27
2018-11-20T19:01:07.963Z,91.31
2018-11-20T19:04:09.262Z,91.08
2018-11-20T19:07:08.383Z,90.88
2018-11-20T19:10:09.419Z,91.43
2018-11-20T19:13:16.517Z,91.34
2018-11-20T19:16:11.595Z,91.36
2018-11-20T19:19:04.637Z,91.52
2018-11-20T19:22:00.888Z,91.34
2018-11-20T19:24:48.900Z,91.22
2018-11-20T19:27:53.464Z,91.87
2018-11-20T19:30:45.656Z,91.61
2018-11-20T19:33:33.703Z,91.57
2018-11-20T19:36:21.588Z,91.08
2018-11-20T19:39:17.073Z,91.03
2018-11-20T19:42:06.318Z,91.16
2018-11-20T19:44:54.227Z,91.15
2018-11-20T19:47:41.848Z,91.04
2018-11-20T19:50:37.451Z,91.28
2018-11-20T19:53:29.553Z,90.76
2018-11-20T19:56:30.888Z,90.72
2018-11-20T19:59:18.406Z,90.66
2018-11-20T20:02:16.715Z,90.29
2018-11-20T20:05:04.322Z,90.38
2018-11-20T20:08:05.693Z,90.38
2018-11-20T20:11:00.697Z,89.96
2018-11-20T20:13:50.037Z,89.94
2018-11-20T20:16:38.302Z,89.93
2018-11-20T20:19:27.779Z,90.15
2018-11-20T20:22:15.733Z,90.29
2018-11-20T20:25:03.392Z,90.19
2018-11-20T20:27:51.010Z,89.97
2018-11-20T20:30:38.641Z,90.17
2018-11-20T20:33:26.628Z,90.69
2018-11-20T20:36:15.978Z,90.67
2018-11-20T20:39:03.896Z,91.01
2018-11-20T20:42:05.551Z,90.88
2018-11-20T20:44:53.620Z,91.13
2018-11-20T20:47:44.557Z,91.39
2018-11-20T20:50:32.199Z,91.54
2018-11-20T20:53:27.446Z,91.27
2018-11-20T20:56:15.250Z,91.51
2018-11-20T20:59:00.389Z,91.55
2018-11-20T21:01:47.944Z,91.23
2018-11-20T21:04:46.718Z,91.26
2018-11-20T21:07:43.334Z,91.13
2018-11-20T21:10:31.576Z,91.37
2018-11-20T21:13:19.037Z,91.25
2018-11-20T21:16:08.366Z,91.24
2018-11-20T21:19:12.761Z,91.26
2018-11-20T21:22:00.891Z,91.29
2018-11-20T21:25:01.906Z,91.28
2018-11-20T21:27:52.641Z,91.32
2018-11-20T21:30:50.870Z,91.42
2018-11-20T21:33:38.837Z,91.64
2018-11-20T21:36:28.208Z,91.68
2018-11-20T21:39:23.261Z,92.02
2018-11-20T21:42:09.492Z,91.91
2018-11-20T21:45:04.676Z,92.26
2018-11-20T21:48:09.137Z,92.07
2018-11-20T21:50:56.676Z,92.02
2018-11-20T21:53:48.270Z,92.00
2018-11-20T21:56:36.117Z,91.76
2018-11-20T21:59:40.153Z,91.89
2018-11-20T22:02:23.294Z,91.68
2018-11-20T22:05:05.532Z,91.69
2018-11-20T22:07:46.203Z,91.65
2018-11-20T22:10:33.939Z,91.35
2018-11-20T22:13:21.519Z,91.38
2018-11-20T22:16:22.739Z,91.61
2018-11-20T22:19:24.104Z,91.21
2018-11-20T22:22:25.133Z,91.17
2018-11-20T22:25:13.008Z,91.42
2018-11-20T22:28:00.754Z,91.25
2018-11-20T22:30:39.628Z,91.15
2018-11-20T22:33:32.099Z,90.83
2018-11-20T22:36:27.382Z,90.80
2018-11-20T22:39:15.660Z,90.80
2018-11-20T22:42:03.297Z,90.65
2018-11-20T22:45:10.518Z,90.43
2018-11-20T22:47:58.197Z,90.43
2018-11-20T22:50:47.565Z,90.54
2018-11-20T22:53:39.822Z,90.52
2018-11-20T22:56:38.199Z,90.48
2018-11-20T22:59:18.279Z,90.22
2018-11-20T23:02:05.831Z,90.14
2018-11-20T23:05:08.156Z,90.48
2018-11-20T23:07:52.379Z,90.44
2018-11-20T23:10:24.144Z,90.13
2018-11-20T23:12:55.006Z,90.03
2018-11-20T23:15:25.646Z,89.99
2018-11-20T23:17:56.341Z,90.01
2018-11-20T23:20:26.986Z,89.93
2018-11-20T23:22:57.643Z,89.48
2018-11-20T23:25:28.349Z,89.51
2018-11-20T23:27:59.006Z,89.40
2018-11-20T23:30:29.655Z,89.46
2018-11-20T23:33:00.337Z,89.40
2018-11-20T23:35:30.972Z,88.91
2018-11-20T23:38:01.620Z,88.90
2018-11-20T23:40:32.311Z,88.82
2018-11-20T23:43:02.957Z,89.02
2018-11-20T23:45:33.595Z,88.80
2018-11-20T23:48:04.288Z,88.54
2018-11-20T23:50:34.934Z,88.32
2018-11-20T23:53:05.572Z,88.32
2018-11-20T23:55:36.361Z,88.42
2018-11-20T23:58:07.022Z,88.12
